Etusivu
METAR-TAF:

METAR-TAF

Lentoasemat :

Rønne, Tanska

Leveyspiiri: 55-04N, Pituuspiiri: 014-45E, korkeus merenpinnasta: 16 m

Tämänhetkinen sää

Tämä raportti tehtiin 17 minuuttia sitten, kello 11.20 UTC
Tuuli 8 kn lännestä
Lämpötila 14°C
Kosteus 88%
Ilmanpaine 1014 hPa
Näkyvyys: 8000 m

METAR: EKRN 291120Z AUTO 26008KT 8000NDV OVC012/// 14/12 Q1014

Aika: 13:37 (11:37 UTC)

Sääennuste

Tämä raportti tehtiin 3 tuntia ja 15 minuuttia sitten, kello 08.22 UTC
Ennuste voimassa 29. päivästä klo 09 UTC - 29. päivään klo 18 UTC
Tuuli 10 kn lännestä
Näkyvyys 10 km tai enemmän
Hajonneita pilviä 1200 ft:n korkeudessa
Ajoittain
29. päivästä klo 09 UTC - 29. päivään klo 10 UTC
Hajonneita pilviä 1500 ft:n korkeudessa
Tulossa
29. päivästä klo 10 UTC - 29. päivään klo 12 UTC
Hajonneita pilviä 2000 ft:n korkeudessa

TAF: EKRN 290822Z 2909/2918 27010KT 9999 BKN012 TEMPO 2909/2910 BKN015 BECMG 2910/2912 BKN020

Säähavainnot ja -ennusteet yli 4000 lentoasemalta (METAR- ja TAF-raportit).

Käytössä olevat sääasemat on merkitty karttaan keltaisilla ja punaisilla pisteillä.

Aseta hiiri pisteen päälle nähdäksesi sääaseman nimen.

Klikkaa sitten nähdäksesi säähavainnot ja -ennusteet.

Kartan vaihtaminen: klikkaa mustalla rastilla varustettuja vihreitä pisteitä, niin voit zoomata sisään; viivalla varustettua vihreää pistettä, niin voit zoomata ulos tai vihreitä nuolia, niin pääset viereisille kartoille.


METAR-TAF: